CheckWX is a tool to help pilots better visualize weather data.  It is not intended as a substitute for an official pre-flight weather briefing.

20:09:07 UTC

KBBP METAR
Marlboro County Jetport - H E Avent Field Airport
Bennettsville, South Carolina, USA
Current

14 mins ago

KBBP 211955Z AUTO 00000KT 10SM CLR 29/17 A3023 RMK AO2
Observed
Sep-21 @ 19:55 UTC
Visibility
10 SM
Flight Rules
VFR
Cloud Levels
  • Clear skies
Temperature
29°C / 84°F
Dewpoint
17°C / 63°F
Heat Index
29°C / 85°F
Humidity
48%
Altimeter
30.23" Hg
Pressure
1023.72 hPa
Previous

34 mins ago

KBBP 211935Z AUTO 00000KT 10SM CLR 29/16 A3023 RMK AO2
Observed
Sep-21 @ 19:35 UTC
Visibility
10 SM
Flight Rules
VFR
Cloud Levels
  • Clear skies
Temperature
29°C / 84°F
Dewpoint
16°C / 61°F
Heat Index
29°C / 84°F
Humidity
45%
Altimeter
30.23" Hg
Pressure
1023.72 hPa
Previous

54 mins ago

KBBP 211915Z AUTO 07003KT 10SM CLR 29/16 A3024 RMK AO2
Observed
Sep-21 @ 19:15 UTC
Wind
  • 070° at 3 KTS
Visibility
10 SM
Flight Rules
VFR
Cloud Levels
  • Clear skies
Temperature
29°C / 84°F
Dewpoint
16°C / 61°F
Heat Index
29°C / 84°F
Humidity
45%
Altimeter
30.24" Hg
Pressure
1024.02 hPa